Main page
METAR-TAF:

METAR-TAF

Airports :

Khartoum, Sudan

Khartoum International Airport

latitude: 15-36N, longitude: 032-33E, elevation: 382 m

Current weather observation

The report was made 12 minutes ago, at 04:00 UTC
Wind 13 kt from the North
Temperature 26°C
Humidity 21%
Pressure 1012 hPa
Visibility 10 km or more
no clouds below 1500 m and no cumulonimbus

METAR: HSSS 230400Z 35013KT CAVOK 26/02 Q1012 NOSIG

Time: 07:12 (04:12 UTC)

Forecast

The report was made 5 hours and 12 minutes ago, at 23:00 UTC
Forecast valid from 23 at 00 UTC to 24 at 06 UTC
Wind 10 kt from the North with gusts up to 20 kt
Visibility 10 km or more
no clouds below 1500 m and no cumulonimbus
Temporary
from 23 at 04 UTC to 23 at 08 UTC
Visibility: 6000 m

TAF: HSSS 222300Z 2300/2406 36010G20KT CAVOK TEMPO 2304/2308 6000

Weather observations and forecasts of more than 4000 airports (METAR and TAF reports).

The available stations are represented by yellow and red dots on the map.

Hover mouse over dot to see the name of the station.

Then click to see weather observations and forecasts.

To change the map : click on the green buttons with a black cross to zoom in, on the green button with a dash to zoom out, or on the green arrows for adjacent maps.


METAR-TAF: